Time;durP1;ratioP1;P1;durP2;ratioP2;P2;SDS_P1;SDS_P2;PMS_P1;PMS_P2;Temp;Humidity;BMP_temperature;BMP_pressure;BME280_temperature;BME280_humidity;BME280_pressure;Samples;Min_cycle;Max_cycle;Signal;HPM_P1;HPM_P2
2022/03/24 00:01:35;;;;;;;37.67;24.67;;;;;;;7.62;50.23;100104.47;5062471;28;20107;-78
2022/03/24 00:04:00;;;;;;;43.22;25.52;;;;;;;7.58;50.44;100104.88;5074519;28;20056;-78
2022/03/24 00:06:26;;;;;;;41.40;25.65;;;;;;;7.56;50.78;100098.09;5062817;28;20064;-78
2022/03/24 00:08:51;;;;;;;44.60;26.30;;;;;;;7.56;50.40;100101.59;5060747;28;20092;-78
2022/03/24 00:11:17;;;;;;;37.13;23.90;;;;;;;7.47;50.93;100100.13;5053697;28;20037;-78
2022/03/24 00:13:43;;;;;;;47.53;26.17;;;;;;;7.47;50.57;100097.47;5080636;28;20036;-78
2022/03/24 00:16:09;;;;;;;42.75;26.23;;;;;;;7.46;51.10;100097.66;5075782;28;20032;-78
2022/03/24 00:18:35;;;;;;;41.30;24.80;;;;;;;7.44;50.67;100102.34;5068261;28;20058;-78
2022/03/24 00:21:00;;;;;;;43.67;26.65;;;;;;;7.45;51.21;100107.47;5072778;28;20535;-78
2022/03/24 00:23:26;;;;;;;40.45;24.98;;;;;;;7.40;50.83;100101.91;5073830;28;20484;-78
2022/03/24 00:25:51;;;;;;;37.78;25.00;;;;;;;7.37;51.17;100102.31;5052169;28;20033;-78
2022/03/24 00:28:16;;;;;;;40.13;24.25;;;;;;;7.33;51.27;100097.59;5039254;28;20567;-78
2022/03/24 00:30:41;;;;;;;41.70;24.77;;;;;;;7.37;51.21;100102.31;5048724;28;20064;-78
2022/03/24 00:33:07;;;;;;;38.25;24.77;;;;;;;7.29;51.16;100101.66;5059940;28;20067;-78
2022/03/24 00:35:33;;;;;;;39.70;24.58;;;;;;;7.26;51.29;100094.91;5064259;28;20119;-78
2022/03/24 00:37:58;;;;;;;42.88;25.27;;;;;;;7.30;51.31;100105.94;5052134;28;20048;-78
2022/03/24 00:40:24;;;;;;;40.75;24.90;;;;;;;7.29;50.93;100104.31;5055528;28;20028;-78
2022/03/24 00:42:50;;;;;;;38.30;24.63;;;;;;;7.25;51.23;100097.78;5066220;28;20025;-78
2022/03/24 00:45:16;;;;;;;42.45;26.33;;;;;;;7.26;51.63;100102.88;5038755;28;20054;-78
2022/03/24 00:47:42;;;;;;;41.05;24.92;;;;;;;7.25;50.90;100103.88;5069632;28;20279;-78
2022/03/24 00:50:09;;;;;;;42.22;26.67;;;;;;;7.20;51.57;100094.88;5064886;28;20290;-78
2022/03/24 00:52:42;;;;;;;38.95;24.60;;;;;;;7.19;51.21;100091.41;5047715;28;20171;-78
2022/03/24 00:55:12;;;;;;;47.60;27.27;;;;;;;7.15;51.53;100087.50;5072516;28;20017;-78
2022/03/24 00:57:40;;;;;;;41.92;25.98;;;;;;;7.09;51.93;100080.31;5069783;28;20040;-78
2022/03/24 01:00:06;;;;;;;41.90;25.85;;;;;;;7.04;51.33;100076.59;5063836;28;20016;-78
2022/03/24 01:02:31;;;;;;;41.47;25.10;;;;;;;7.10;51.66;100084.59;5045547;28;20025;-78
2022/03/24 01:04:57;;;;;;;45.70;26.08;;;;;;;7.10;51.47;100081.94;5066653;28;20502;-78
2022/03/24 01:07:23;;;;;;;39.65;24.30;;;;;;;7.04;51.63;100073.94;5054947;28;20037;-78
2022/03/24 01:09:49;;;;;;;41.25;25.95;;;;;;;7.06;51.61;100082.53;5070903;28;20405;-78
2022/03/24 01:12:14;;;;;;;39.17;25.00;;;;;;;6.99;51.98;100079.84;5049935;28;20036;-78
2022/03/24 01:14:39;;;;;;;45.97;27.23;;;;;;;6.98;51.59;100080.03;5060153;28;20111;-78
2022/03/24 01:17:07;;;;;;;40.63;26.02;;;;;;;6.95;51.89;100072.47;5062256;28;20085;-78
2022/03/24 01:19:33;;;;;;;37.55;25.40;;;;;;;6.96;51.85;100082.91;5065699;28;20026;-78
2022/03/24 01:22:00;;;;;;;40.97;26.02;;;;;;;6.95;51.85;100078.59;5062286;28;20029;-78
2022/03/24 01:24:26;;;;;;;47.03;26.35;;;;;;;6.89;51.76;100073.25;5066925;28;20028;-78
2022/03/24 01:26:51;;;;;;;42.08;26.55;;;;;;;6.83;51.74;100066.91;5063105;28;20035;-78
2022/03/24 01:29:16;;;;;;;46.22;27.38;;;;;;;6.85;52.19;100061.38;5032355;28;20107;-78
2022/03/24 01:31:42;;;;;;;41.08;24.48;;;;;;;6.83;51.82;100064.25;5065758;28;20134;-78
2022/03/24 01:34:09;;;;;;;37.35;25.90;;;;;;;6.80;52.32;100061.97;5063739;28;20097;-78
2022/03/24 01:36:35;;;;;;;40.40;26.13;;;;;;;6.75;52.45;100062.53;5045018;28;20032;-78
2022/03/24 01:39:00;;;;;;;39.78;25.55;;;;;;;6.80;52.25;100067.28;5060706;28;20050;-78
2022/03/24 01:41:25;;;;;;;41.22;25.60;;;;;;;6.78;51.85;100067.47;5065274;28;20021;-78
2022/03/24 01:43:51;;;;;;;45.95;25.85;;;;;;;6.71;52.12;100057.81;5064464;28;20540;-78
2022/03/24 01:46:21;;;;;;;38.67;27.15;;;;;;;6.70;51.93;100058.84;5049545;28;20025;-78
2022/03/24 01:48:47;;;;;;;39.88;25.25;;;;;;;6.71;52.15;100063.94;5058638;28;20085;-78
2022/03/24 01:51:13;;;;;;;39.05;25.58;;;;;;;6.63;51.93;100050.00;5064946;28;20025;-78
2022/03/24 01:53:39;;;;;;;42.88;26.15;;;;;;;6.63;52.47;100045.53;5067784;28;20588;-78
2022/03/24 01:56:04;;;;;;;42.63;25.23;;;;;;;6.67;52.21;100070.66;5061925;28;20028;-78
2022/03/24 01:58:29;;;;;;;42.28;26.55;;;;;;;6.60;51.94;100061.00;5061718;28;20035;-78
2022/03/24 02:01:17;;;;;;;40.20;25.65;;;;;;;6.62;52.25;100059.81;5069634;28;20031;-78
2022/03/24 02:03:44;;;;;;;46.33;25.05;;;;;;;6.56;52.21;100054.44;5070084;28;20031;-79
2022/03/24 02:06:09;;;;;;;43.83;24.95;;;;;;;6.60;51.71;100072.44;5035362;28;20036;-78
2022/03/24 02:08:35;;;;;;;48.53;25.80;;;;;;;6.49;52.05;100057.03;5071038;28;20025;-78
2022/03/24 02:11:01;;;;;;;41.58;25.65;;;;;;;6.48;52.51;100054.59;5074129;28;20066;-78
2022/03/24 02:13:26;;;;;;;44.15;26.50;;;;;;;6.52;52.42;100061.16;5068338;28;21298;-78
2022/03/24 02:15:52;;;;;;;41.08;25.00;;;;;;;6.48;52.35;100060.72;5067909;28;20115;-78
2022/03/24 02:18:17;;;;;;;42.10;24.45;;;;;;;6.47;52.31;100060.91;5058372;28;20505;-78
2022/03/24 02:20:42;;;;;;;46.53;26.90;;;;;;;6.48;52.51;100067.84;5033193;28;20028;-78
2022/03/24 02:23:08;;;;;;;44.85;24.80;;;;;;;6.46;53.51;100070.72;5073638;28;20081;-78
2022/03/24 02:25:35;;;;;;;42.00;26.00;;;;;;;6.44;52.30;100064.78;5070386;28;20073;-78
2022/03/24 02:28:02;;;;;;;41.60;25.55;;;;;;;6.41;52.27;100056.38;5073739;28;20033;-78
2022/03/24 02:30:29;;;;;;;38.33;24.55;;;;;;;6.33;52.57;100049.38;5071645;28;20036;-78
2022/03/24 02:32:55;;;;;;;46.40;25.38;;;;;;;6.34;52.60;100058.13;5083694;28;20074;-78
2022/03/24 02:35:20;;;;;;;41.92;26.15;;;;;;;6.35;52.90;100065.09;5081348;28;20534;-79
2022/03/24 02:37:45;;;;;;;42.13;26.17;;;;;;;6.29;52.78;100056.06;5078745;28;20123;-78
2022/03/24 02:40:12;;;;;;;44.50;26.70;;;;;;;6.31;52.94;100063.84;5071708;28;20491;-78
2022/03/24 02:42:38;;;;;;;43.25;25.95;;;;;;;6.27;53.26;100049.34;5071557;28;20035;-78
2022/03/24 02:45:07;;;;;;;41.28;24.83;;;;;;;6.21;52.84;100050.06;5060324;28;20028;-78
2022/03/24 02:47:33;;;;;;;45.20;26.77;;;;;;;6.19;52.96;100058.22;5044729;28;20375;-78
2022/03/24 02:49:59;;;;;;;47.22;26.90;;;;;;;6.14;53.35;100054.53;5054828;28;20502;-78
2022/03/24 02:52:26;;;;;;;39.85;26.30;;;;;;;6.18;52.65;100059.22;5079978;28;20037;-78
2022/03/24 02:54:51;;;;;;;42.35;25.88;;;;;;;6.13;53.12;100052.88;5078586;28;20498;-78
2022/03/24 02:57:17;;;;;;;41.47;25.35;;;;;;;6.13;52.96;100056.34;5074059;28;20036;-78
2022/03/24 02:59:43;;;;;;;37.85;24.13;;;;;;;6.15;53.15;100064.94;5064927;28;20098;-78
2022/03/24 03:02:13;;;;;;;40.00;24.92;;;;;;;6.12;53.05;100067.13;5074926;28;20028;-78
2022/03/24 03:04:39;;;;;;;42.50;26.40;;;;;;;6.11;53.08;100062.84;5082201;28;20025;-78
2022/03/24 03:07:05;;;;;;;41.10;25.65;;;;;;;6.01;53.42;100057.84;5074530;28;20031;-78
2022/03/24 03:09:32;;;;;;;46.50;27.25;;;;;;;6.01;53.48;100061.31;5073810;28;20515;-78
2022/03/24 03:11:58;;;;;;;46.65;26.90;;;;;;;5.96;53.10;100053.09;5078459;28;20056;-78
2022/03/24 03:14:24;;;;;;;44.63;26.38;;;;;;;6.05;52.74;100064.41;5076493;28;20031;-78
2022/03/24 03:16:50;;;;;;;43.53;26.80;;;;;;;5.94;53.45;100068.38;5079645;28;20069;-78
2022/03/24 03:19:19;;;;;;;43.05;26.50;;;;;;;6.01;53.46;100073.75;5066248;28;20028;-78
2022/03/24 03:21:44;;;;;;;41.60;25.98;;;;;;;5.95;53.43;100070.03;5076546;28;20487;-78
2022/03/24 03:24:11;;;;;;;43.40;26.27;;;;;;;5.86;53.89;100065.88;5066108;28;20040;-78
2022/03/24 03:26:37;;;;;;;43.75;25.63;;;;;;;5.91;53.64;100071.44;5053181;28;20047;-78
2022/03/24 03:29:03;;;;;;;40.10;25.50;;;;;;;5.83;54.03;100057.44;5062798;28;21389;-78
2022/03/24 03:31:29;;;;;;;44.22;26.00;;;;;;;5.89;53.64;100070.78;5073462;28;20053;-78
2022/03/24 03:33:55;;;;;;;46.97;27.60;;;;;;;5.81;54.13;100064.78;5062995;28;20044;-78
2022/03/24 03:36:22;;;;;;;43.08;26.70;;;;;;;5.76;53.56;100052.09;5056246;28;20033;-78
2022/03/24 03:38:48;;;;;;;45.22;27.13;;;;;;;5.78;53.63;100059.84;5073768;28;20326;-78
2022/03/24 03:41:15;;;;;;;43.58;26.70;;;;;;;5.79;53.77;100072.88;5063368;28;20017;-78
2022/03/24 03:43:41;;;;;;;40.97;25.00;;;;;;;5.79;53.61;100078.19;5067693;28;20029;-78
2022/03/24 03:46:08;;;;;;;48.95;27.77;;;;;;;5.77;53.68;100074.91;5065538;28;20116;-78
2022/03/24 03:48:33;;;;;;;41.92;26.33;;;;;;;5.77;53.91;100074.06;5053090;28;20062;-78
2022/03/24 03:50:59;;;;;;;43.75;26.50;;;;;;;5.75;54.31;100076.91;5040853;28;20086;-78
2022/03/24 03:53:24;;;;;;;48.72;27.73;;;;;;;5.75;54.03;100068.97;5057472;28;20033;-78
2022/03/24 03:55:50;;;;;;;42.67;26.83;;;;;;;5.74;54.03;100067.34;5074678;28;20037;-78
2022/03/24 03:58:16;;;;;;;45.97;27.13;;;;;;;5.66;54.04;100069.25;5066751;28;20415;-78
2022/03/24 04:00:55;;;;;;;43.38;27.35;;;;;;;5.68;54.06;100070.72;5047994;28;20037;-78
2022/03/24 04:03:29;;;;;;;46.83;25.58;;;;;;;5.64;53.83;100072.09;5064111;28;20362;-78
2022/03/24 04:05:57;;;;;;;47.80;28.05;;;;;;;5.66;53.76;100062.13;5050891;28;20028;-78
2022/03/24 04:08:24;;;;;;;42.75;26.88;;;;;;;5.63;54.24;100061.72;5072097;28;20325;-78
2022/03/24 04:10:49;;;;;;;43.22;26.77;;;;;;;5.57;53.95;100065.91;5067314;28;20064;-78
2022/03/24 04:13:19;;;;;;;47.05;26.52;;;;;;;5.47;53.81;100051.31;5046891;28;20035;-78
2022/03/24 04:15:45;;;;;;;42.95;26.17;;;;;;;5.49;54.07;100054.59;5067321;28;20021;-78
2022/03/24 04:18:12;;;;;;;45.88;26.75;;;;;;;5.57;54.22;100071.19;5062422;28;20021;-78
2022/03/24 04:20:38;;;;;;;40.88;26.55;;;;;;;5.57;53.72;100071.19;5063680;28;20157;-78
2022/03/24 04:23:05;;;;;;;51.97;28.63;;;;;;;5.49;53.93;100058.09;5051985;28;20114;-78
2022/03/24 04:25:32;;;;;;;42.10;26.92;;;;;;;5.53;54.16;100067.28;5051838;28;20027;-78
2022/03/24 04:27:58;;;;;;;45.92;28.15;;;;;;;5.47;54.01;100060.09;5067079;28;20033;-78
2022/03/24 04:30:25;;;;;;;51.33;28.83;;;;;;;5.45;54.07;100059.47;5067756;28;20028;-78
2022/03/24 04:32:50;;;;;;;51.25;27.83;;;;;;;5.41;54.07;100055.56;5052171;28;20119;-79
2022/03/24 04:35:17;;;;;;;45.47;27.13;;;;;;;5.50;54.37;100065.03;5067791;28;20115;-79
2022/03/24 04:37:43;;;;;;;48.50;28.23;;;;;;;5.42;54.61;100059.81;5065626;28;20025;-78
2022/03/24 04:40:13;;;;;;;41.42;25.75;;;;;;;5.41;54.48;100058.19;5061344;28;20201;-79
2022/03/24 04:42:39;;;;;;;43.15;27.33;;;;;;;5.37;54.53;100050.81;5048380;28;20425;-79
2022/03/24 04:45:06;;;;;;;44.55;27.45;;;;;;;5.40;54.33;100050.41;5067336;28;20380;-78
2022/03/24 04:47:32;;;;;;;45.28;28.45;;;;;;;5.36;54.55;100049.97;5062786;28;20112;-78
2022/03/24 04:49:57;;;;;;;49.25;27.17;;;;;;;5.39;54.39;100060.22;5036871;28;20153;-78
2022/03/24 04:52:22;;;;;;;46.63;29.10;;;;;;;5.32;54.69;100054.00;5050186;28;20118;-78
2022/03/24 04:54:48;;;;;;;44.95;27.13;;;;;;;5.31;54.22;100050.53;5057235;28;20032;-78
2022/03/24 04:57:13;;;;;;;43.25;28.40;;;;;;;5.31;54.88;100057.66;5067058;28;20636;-78
2022/03/24 04:59:39;;;;;;;42.92;27.02;;;;;;;5.23;54.38;100055.13;5066476;28;20047;-78
2022/03/24 05:02:05;;;;;;;47.42;27.90;;;;;;;5.26;54.69;100058.19;5061450;28;20028;-78
2022/03/24 05:04:30;;;;;;;45.78;29.13;;;;;;;5.30;54.74;100069.25;5071811;28;20513;-78
2022/03/24 05:06:55;;;;;;;49.50;29.27;;;;;;;5.25;54.68;100061.88;5073755;28;20045;-78
2022/03/24 05:09:21;;;;;;;50.63;28.25;;;;;;;5.23;54.95;100071.81;5077553;28;20020;-78
2022/03/24 05:11:46;;;;;;;41.65;26.85;;;;;;;5.18;54.36;100060.13;5061853;28;20098;-78
2022/03/24 05:14:12;;;;;;;43.50;28.33;;;;;;;5.23;54.90;100065.69;5045620;28;20399;-78
2022/03/24 05:16:38;;;;;;;48.35;28.90;;;;;;;5.17;55.32;100056.69;5064483;28;20032;-78
2022/03/24 05:19:04;;;;;;;50.50;27.77;;;;;;;5.18;54.78;100065.41;5079670;28;20361;-78
2022/03/24 05:21:32;;;;;;;44.72;27.30;;;;;;;5.16;55.00;100064.78;5058890;28;20025;-78
2022/03/24 05:23:59;;;;;;;44.00;28.42;;;;;;;5.17;54.56;100064.63;5054092;28;20040;-78
2022/03/24 05:26:24;;;;;;;46.97;27.98;;;;;;;5.07;55.03;100052.66;5068725;28;20033;-78
2022/03/24 05:28:50;;;;;;;43.03;27.60;;;;;;;5.09;54.94;100061.22;5070274;28;20090;-78
2022/03/24 05:31:17;;;;;;;46.55;27.27;;;;;;;5.10;54.83;100074.28;5064397;28;20500;-78
2022/03/24 05:33:43;;;;;;;41.15;26.30;;;;;;;5.06;54.76;100066.91;5074300;28;20051;-78
2022/03/24 05:36:08;;;;;;;44.60;27.75;;;;;;;5.08;55.12;100072.84;5040902;28;20032;-78
2022/03/24 05:38:34;;;;;;;46.65;28.38;;;;;;;5.07;55.15;100074.66;5063653;28;20055;-78
2022/03/24 05:40:59;;;;;;;49.40;28.13;;;;;;;5.10;54.97;100071.66;5087357;28;20051;-78
2022/03/24 05:43:25;;;;;;;42.83;25.90;;;;;;;5.08;54.79;100071.00;5080836;28;20420;-78
2022/03/24 05:45:50;;;;;;;47.35;28.00;;;;;;;5.08;55.51;100063.06;5054476;28;20036;-79
2022/03/24 05:48:15;;;;;;;45.83;28.75;;;;;;;5.07;54.88;100063.25;5069667;28;20483;-78
2022/03/24 05:50:41;;;;;;;43.92;28.23;;;;;;;5.02;55.13;100058.50;5073622;28;20043;-78
2022/03/24 05:53:07;;;;;;;51.08;28.20;;;;;;;5.06;55.32;100072.19;5078800;28;20028;-79
2022/03/24 05:55:35;;;;;;;45.40;28.83;;;;;;;4.97;55.13;100055.59;5057715;28;20024;-78
2022/03/24 05:58:00;;;;;;;45.28;28.23;;;;;;;4.98;54.99;100061.72;5057048;28;20189;-78
2022/03/24 06:00:26;;;;;;;53.13;30.63;;;;;;;4.92;55.89;100067.72;5082020;28;20117;-78
2022/03/24 06:02:53;;;;;;;52.03;30.23;;;;;;;4.73;56.98;100073.53;5075288;28;20487;-78
2022/03/24 06:05:20;;;;;;;56.15;31.52;;;;;;;4.68;57.63;100068.78;5070552;28;20118;-78
2022/03/24 06:07:46;;;;;;;53.15;30.30;;;;;;;4.64;57.08;100061.41;5069800;28;20102;-78
2022/03/24 06:10:12;;;;;;;50.92;29.88;;;;;;;4.69;56.64;100061.69;5075559;28;20387;-78
2022/03/24 06:12:37;;;;;;;51.20;29.13;;;;;;;4.79;56.74;100068.34;5068804;28;20029;-78
2022/03/24 06:15:04;;;;;;;45.65;28.15;;;;;;;4.79;56.71;100059.59;5046616;28;20033;-77
2022/03/24 06:17:29;;;;;;;47.88;28.33;;;;;;;4.78;56.41;100056.16;5060188;28;20535;-77
2022/03/24 06:19:55;;;;;;;47.35;27.17;;;;;;;4.89;56.90;100070.75;5068699;28;20036;-77
2022/03/24 06:22:20;;;;;;;46.35;28.63;;;;;;;4.88;56.93;100061.97;5069479;28;20037;-77
2022/03/24 06:24:45;;;;;;;48.40;28.30;;;;;;;4.90;56.75;100059.13;5066083;28;20036;-77
2022/03/24 06:27:11;;;;;;;47.95;27.45;;;;;;;4.95;56.86;100078.78;5074952;28;20125;-77
2022/03/24 06:29:36;;;;;;;47.28;27.83;;;;;;;4.94;56.65;100068.34;5049592;28;20032;-77
2022/03/24 06:32:02;;;;;;;49.65;29.58;;;;;;;5.02;56.52;100079.66;5075663;28;20038;-77
2022/03/24 06:34:27;;;;;;;46.03;27.40;;;;;;;4.98;56.63;100075.75;5079995;28;20036;-77
2022/03/24 06:36:54;;;;;;;46.17;27.10;;;;;;;5.04;56.93;100074.22;5075219;28;20503;-77
2022/03/24 06:39:19;;;;;;;43.72;26.77;;;;;;;5.11;56.82;100072.47;5082548;28;20434;-77
2022/03/24 06:41:45;;;;;;;45.35;27.25;;;;;;;5.13;56.33;100070.47;5088533;28;20037;-77
2022/03/24 06:44:10;;;;;;;44.78;27.40;;;;;;;5.17;56.63;100077.84;5078758;28;20111;-77
2022/03/24 06:46:36;;;;;;;46.00;27.58;;;;;;;5.14;56.86;100074.75;5074898;28;20311;-77
2022/03/24 06:49:03;;;;;;;45.80;27.30;;;;;;;5.26;56.38;100091.81;5069764;28;20039;-77
2022/03/24 06:51:30;;;;;;;44.42;28.20;;;;;;;5.27;56.57;100080.19;5069028;28;20024;-77
2022/03/24 06:53:56;;;;;;;45.38;27.15;;;;;;;5.29;56.66;100084.31;5055389;28;20350;-77
2022/03/24 06:56:21;;;;;;;42.53;26.92;;;;;;;5.33;56.61;100082.94;5071618;28;20042;-77
2022/03/24 06:58:47;;;;;;;47.63;28.13;;;;;;;5.32;56.57;100077.84;5067296;28;20033;-77
2022/03/24 07:01:12;;;;;;;46.17;28.17;;;;;;;5.35;56.96;100084.59;5053046;28;20016;-77
2022/03/24 07:03:37;;;;;;;39.38;25.67;;;;;;;5.35;56.87;100079.28;5051347;28;20383;-77
2022/03/24 07:06:04;;;;;;;45.45;27.27;;;;;;;5.37;57.04;100078.09;5072430;28;20032;-77
2022/03/24 07:08:30;;;;;;;42.20;25.05;;;;;;;5.39;56.48;100099.09;5069159;28;20320;-77
2022/03/24 07:10:55;;;;;;;41.42;25.42;;;;;;;5.43;56.77;100089.78;5069139;28;20488;-77
2022/03/24 07:13:20;;;;;;;44.10;26.60;;;;;;;5.42;56.78;100083.66;5068458;28;20029;-77
2022/03/24 07:15:46;;;;;;;43.60;25.88;;;;;;;5.48;56.85;100087.41;5048155;28;20112;-78
2022/03/24 07:18:12;;;;;;;42.55;26.38;;;;;;;5.53;56.83;100092.94;5038563;28;20492;-78
2022/03/24 07:20:37;;;;;;;46.35;27.02;;;;;;;5.50;56.73;100088.88;5064887;28;20028;-78
2022/03/24 07:23:04;;;;;;;44.17;26.17;;;;;;;5.60;56.94;100099.16;5067257;28;20041;-78
2022/03/24 07:25:32;;;;;;;45.30;26.27;;;;;;;5.61;56.90;100092.84;5059194;28;20035;-78
2022/03/24 07:27:59;;;;;;;44.10;26.55;;;;;;;5.66;56.96;100101.88;5065290;28;20076;-78
2022/03/24 07:30:25;;;;;;;48.38;28.13;;;;;;;5.69;56.82;100093.56;5060643;28;20477;-78
2022/03/24 07:32:53;;;;;;;43.67;27.25;;;;;;;5.77;56.86;100101.38;5058369;28;20036;-78
2022/03/24 07:35:19;;;;;;;43.05;26.27;;;;;;;5.79;57.06;100103.84;5061846;28;20025;-78
2022/03/24 07:37:46;;;;;;;43.42;25.83;;;;;;;5.80;57.15;100095.72;5057905;28;20035;-78
2022/03/24 07:40:11;;;;;;;43.97;26.25;;;;;;;5.82;56.99;100092.88;5054428;28;20028;-78
2022/03/24 07:42:37;;;;;;;46.17;27.13;;;;;;;5.92;57.09;100112.78;5059327;28;20024;-78
2022/03/24 07:45:04;;;;;;;42.45;25.70;;;;;;;5.93;57.01;100103.84;5056866;28;20495;-78
2022/03/24 07:47:30;;;;;;;43.28;26.95;;;;;;;5.96;57.08;100105.31;5064360;28;20033;-78
2022/03/24 07:49:56;;;;;;;51.03;28.27;;;;;;;6.04;56.93;100106.00;5064424;28;20556;-78
2022/03/24 07:52:24;;;;;;;44.80;26.33;;;;;;;6.07;56.66;100100.31;5048011;28;20024;-78
2022/03/24 07:54:58;;;;;;;44.92;29.08;;;;;;;6.17;57.07;100107.13;5051149;28;20041;-78
2022/03/24 07:57:26;;;;;;;40.08;26.48;;;;;;;6.12;56.58;100088.31;5061161;28;20074;-78
2022/03/24 07:59:51;;;;;;;46.85;26.88;;;;;;;6.18;56.16;100101.63;5021310;28;20849;-78
2022/03/24 08:02:17;;;;;;;46.70;28.88;;;;;;;6.26;56.58;100100.69;5054131;28;20036;-78
2022/03/24 08:04:43;;;;;;;42.15;28.02;;;;;;;6.33;56.49;100101.59;5056271;28;20607;-78
2022/03/24 08:07:09;;;;;;;44.35;28.30;;;;;;;6.36;56.18;100102.03;5052233;28;20050;-78
2022/03/24 08:09:35;;;;;;;48.08;27.40;;;;;;;6.37;56.89;100087.75;5053946;28;20423;-78
2022/03/24 08:12:00;;;;;;;49.45;28.90;;;;;;;6.42;56.75;100093.28;5057361;28;20082;-78
2022/03/24 08:14:26;;;;;;;44.53;27.95;;;;;;;6.46;56.76;100093.75;5041576;28;20055;-78
2022/03/24 08:16:52;;;;;;;43.92;27.35;;;;;;;6.53;56.58;100094.63;5057685;28;20089;-78
2022/03/24 08:19:17;;;;;;;49.42;29.60;;;;;;;6.58;56.46;100100.16;5056943;28;20034;-78
2022/03/24 08:21:43;;;;;;;46.78;28.80;;;;;;;6.60;56.94;100101.63;5061752;28;20470;-78
2022/03/24 08:24:09;;;;;;;44.60;28.35;;;;;;;6.68;57.03;100105.97;5063067;28;20395;-78
2022/03/24 08:26:35;;;;;;;51.90;27.90;;;;;;;6.74;56.97;100105.19;5063577;28;20024;-78
2022/03/24 08:29:00;;;;;;;44.88;27.98;;;;;;;6.76;56.56;100101.34;5042011;28;20492;-78
2022/03/24 08:31:26;;;;;;;49.20;29.35;;;;;;;6.85;56.21;100104.66;5064550;28;20025;-78
2022/03/24 08:33:51;;;;;;;51.80;30.08;;;;;;;6.82;56.42;100105.03;5064186;28;20047;-78
2022/03/24 08:36:17;;;;;;;49.42;27.88;;;;;;;6.94;56.50;100119.44;5064124;28;21305;-78
2022/03/24 08:38:42;;;;;;;46.72;29.35;;;;;;;6.94;57.00;100106.16;5049418;28;20502;-78
2022/03/24 08:41:08;;;;;;;51.15;30.30;;;;;;;7.03;56.35;100109.47;5060633;28;20040;-78
2022/03/24 08:43:33;;;;;;;46.60;28.00;;;;;;;7.03;57.31;100102.34;5053441;28;20511;-78
2022/03/24 08:45:58;;;;;;;49.65;28.45;;;;;;;7.08;57.06;100097.25;5028922;28;20033;-78
2022/03/24 08:48:24;;;;;;;47.25;30.58;;;;;;;7.17;56.98;100105.88;5052166;28;20076;-78
2022/03/24 08:50:49;;;;;;;47.25;28.08;;;;;;;7.19;56.89;100103.84;5070048;28;20028;-78
2022/03/24 08:53:15;;;;;;;49.55;30.27;;;;;;;7.26;56.29;100104.72;5040837;28;20079;-78
2022/03/24 08:55:40;;;;;;;51.35;30.42;;;;;;;7.33;56.46;100109.06;5031102;28;20024;-78
2022/03/24 08:58:05;;;;;;;60.72;30.30;;;;;;;7.38;57.12;100111.13;5065024;28;20372;-78
2022/03/24 09:00:31;;;;;;;63.10;31.98;;;;;;;7.47;57.25;100123.19;5050403;28;20478;-78
2022/03/24 09:02:56;;;;;;;53.00;28.77;;;;;;;7.46;56.92;100106.47;5059614;28;20031;-78
2022/03/24 09:05:23;;;;;;;57.13;31.25;;;;;;;7.57;57.29;100115.69;5081269;28;20483;-79
2022/03/24 09:07:49;;;;;;;54.70;31.58;;;;;;;7.64;57.46;100118.38;5053341;28;20515;-79
2022/03/24 09:10:15;;;;;;;48.67;29.45;;;;;;;7.68;57.08;100116.97;5051355;28;20032;-79
2022/03/24 09:12:44;;;;;;;49.13;31.00;;;;;;;7.72;57.44;100121.69;5058927;28;20020;-79
2022/03/24 09:15:11;;;;;;;48.78;31.15;;;;;;;7.72;57.45;100103.09;5055094;28;20036;-78
2022/03/24 09:17:39;;;;;;;51.83;32.72;;;;;;;7.86;56.85;100127.88;5051922;28;20067;-79
2022/03/24 09:20:09;;;;;;;51.72;30.67;;;;;;;7.82;57.17;100105.38;5049587;28;20043;-79
2022/03/24 09:22:47;;;;;;;53.78;29.92;;;;;;;7.97;56.84;100124.63;5063206;28;20032;-79
2022/03/24 09:25:14;;;;;;;51.55;30.42;;;;;;;7.95;57.10;100097.44;5053760;28;20926;-79
2022/03/24 09:27:40;;;;;;;52.80;30.58;;;;;;;8.07;56.71;100120.56;5055440;28;20051;-79
2022/03/24 09:30:07;;;;;;;50.60;31.60;;;;;;;8.19;56.61;100126.13;5059634;28;20101;-79
2022/03/24 09:32:34;;;;;;;47.95;30.50;;;;;;;8.20;56.45;100114.47;5066416;28;20469;-79
2022/03/24 09:34:59;;;;;;;49.50;30.52;;;;;;;8.29;56.50;100116.75;5050703;28;20480;-79
2022/03/24 09:37:25;;;;;;;51.63;30.30;;;;;;;8.40;55.90;100115.34;5051430;28;20028;-79
2022/03/24 09:39:51;;;;;;;48.65;31.60;;;;;;;8.48;56.53;100120.44;5070455;28;20472;-79
2022/03/24 09:42:18;;;;;;;48.38;31.38;;;;;;;8.54;56.04;100116.19;5061906;28;20020;-79
2022/03/24 09:44:44;;;;;;;50.10;31.58;;;;;;;8.63;56.21;100121.06;5055726;28;20063;-79
2022/03/24 09:47:12;;;;;;;54.60;30.83;;;;;;;8.71;55.94;100117.41;5064292;28;20040;-79
2022/03/24 09:49:42;;;;;;;55.97;34.42;;;;;;;8.76;55.45;100110.41;5070721;28;20028;-79
2022/03/24 09:52:10;;;;;;;60.65;34.42;;;;;;;8.86;55.99;100123.34;5054627;28;20101;-79
2022/03/24 09:54:35;;;;;;;58.50;35.40;;;;;;;8.95;55.32;100117.56;5078670;28;20027;-79
2022/03/24 09:57:07;;;;;;;53.30;34.50;;;;;;;9.03;55.81;100119.22;5051676;28;20040;-81
2022/03/24 09:59:33;;;;;;;50.80;29.98;;;;;;;9.04;55.28;100112.88;5043361;28;20031;-81
2022/03/24 10:02:01;;;;;;;48.45;31.10;;;;;;;9.10;54.93;100103.22;5057640;28;20127;-81
2022/03/24 10:04:26;;;;;;;55.28;33.22;;;;;;;9.16;55.47;100105.03;5052839;28;20034;-82
2022/03/24 10:07:01;;;;;;;48.58;32.58;;;;;;;9.28;55.40;100111.38;5041871;28;20075;-82
2022/03/24 10:09:44;;;;;;;50.72;31.38;;;;;;;9.35;54.94;100109.53;5052671;28;20029;-81
2022/03/24 10:12:18;;;;;;;52.08;31.33;;;;;;;9.43;54.83;100111.94;5051217;28;20020;-82
2022/03/24 10:14:45;;;;;;;53.65;32.08;;;;;;;9.49;55.48;100103.09;5051790;28;20463;-82
2022/03/24 10:17:11;;;;;;;50.35;32.72;;;;;;;9.57;55.60;100102.88;5056699;28;20103;-82
2022/03/24 10:19:38;;;;;;;53.65;32.88;;;;;;;9.70;55.55;100113.47;5054878;28;20084;-82
2022/03/24 10:22:08;;;;;;;54.63;32.58;;;;;;;9.80;54.49;100104.03;5057738;28;20123;-82
2022/03/24 10:24:39;;;;;;;51.75;31.92;;;;;;;9.88;54.54;100100.28;5039117;28;20106;-82
2022/03/24 10:27:05;;;;;;;52.55;32.75;;;;;;;9.92;55.35;100100.66;5092662;28;20035;-82
2022/03/24 10:29:31;;;;;;;54.28;34.00;;;;;;;10.01;54.51;100100.19;5057360;28;20040;-82
2022/03/24 10:31:59;;;;;;;55.88;31.60;;;;;;;10.12;53.92;100106.72;5063938;28;20028;-82
2022/03/24 10:34:33;;;;;;;56.33;33.00;;;;;;;10.16;54.69;100095.41;5058552;28;20491;-82
2022/03/24 10:37:26;;;;;;;55.60;33.15;;;;;;;10.23;54.44;100095.38;5061009;28;20083;-82
2022/03/24 10:39:55;;;;;;;50.25;31.58;;;;;;;10.27;53.87;100096.56;5059199;28;20043;-82
2022/03/24 10:42:23;;;;;;;48.70;31.48;;;;;;;10.25;54.04;100083.47;5048706;28;20031;-82
2022/03/24 10:45:14;;;;;;;52.55;31.73;;;;;;;10.32;54.84;100094.91;5051504;28;20488;-82
2022/03/24 10:47:44;;;;;;;47.78;31.60;;;;;;;10.32;54.23;100092.25;5069641;28;20024;-82
2022/03/24 10:50:28;;;;;;;53.60;32.88;;;;;;;10.36;54.47;100087.28;5057590;28;20039;-82
2022/03/24 10:52:58;;;;;;;54.42;31.13;;;;;;;10.37;54.12;100100.44;5057619;28;20032;-82
2022/03/24 10:55:30;;;;;;;51.50;31.00;;;;;;;10.40;53.83;100089.28;5064395;28;20449;-82
2022/03/24 10:57:57;;;;;;;50.03;31.67;;;;;;;10.43;53.74;100090.72;5066478;28;20055;-82
2022/03/24 11:00:22;;;;;;;52.83;32.25;;;;;;;10.50;53.46;100089.66;5061849;28;20104;-83
2022/03/24 11:02:48;;;;;;;49.90;31.02;;;;;;;10.52;53.54;100084.09;5051225;28;20125;-82
2022/03/24 11:05:13;;;;;;;50.92;30.88;;;;;;;10.54;53.53;100085.50;5071520;28;20025;-82
2022/03/24 11:07:38;;;;;;;50.80;31.08;;;;;;;10.57;53.48;100078.09;5090423;28;20025;-83
2022/03/24 11:10:14;;;;;;;49.60;29.42;;;;;;;10.64;53.97;100074.31;5065939;28;20031;-83
2022/03/24 11:12:42;;;;;;;50.20;30.00;;;;;;;10.70;53.58;100076.13;5066865;28;20033;-83
2022/03/24 11:15:09;;;;;;;49.53;30.25;;;;;;;10.82;53.07;100073.53;5060020;28;20052;-83